sensor_id;sensor_type;location;lat;lon;timestamp;pressure;altitude;pressure_sealevel;temperature;humidity
18795;BME280;29610;49.022;12.114;2023-04-26T00:00:42;97620.06;;;5.91;100.00
18795;BME280;29610;49.022;12.114;2023-04-26T00:03:32;97624.28;;;5.78;100.00
18795;BME280;29610;49.022;12.114;2023-04-26T00:06:21;97623.84;;;5.71;100.00
18795;BME280;29610;49.022;12.114;2023-04-26T00:09:10;97619.63;;;5.65;100.00
18795;BME280;29610;49.022;12.114;2023-04-26T00:12:01;97627.69;;;5.65;100.00
18795;BME280;29610;49.022;12.114;2023-04-26T00:14:50;97622.16;;;5.75;100.00
18795;BME280;29610;49.022;12.114;2023-04-26T00:17:39;97626.94;;;5.83;100.00
18795;BME280;29610;49.022;12.114;2023-04-26T00:20:29;97629.28;;;5.90;100.00
18795;BME280;29610;49.022;12.114;2023-04-26T00:23:18;97627.06;;;5.92;100.00
18795;BME280;29610;49.022;12.114;2023-04-26T00:26:07;97629.69;;;5.97;100.00
18795;BME280;29610;49.022;12.114;2023-04-26T00:28:58;97634.78;;;5.98;100.00
18795;BME280;29610;49.022;12.114;2023-04-26T00:31:47;97641.59;;;5.96;100.00
18795;BME280;29610;49.022;12.114;2023-04-26T00:34:37;97639.03;;;5.86;100.00
18795;BME280;29610;49.022;12.114;2023-04-26T00:37:26;97629.06;;;5.86;100.00
18795;BME280;29610;49.022;12.114;2023-04-26T00:40:15;97631.75;;;5.86;100.00
18795;BME280;29610;49.022;12.114;2023-04-26T00:43:05;97625.75;;;5.71;100.00
18795;BME280;29610;49.022;12.114;2023-04-26T00:45:56;97627.28;;;5.77;100.00
18795;BME280;29610;49.022;12.114;2023-04-26T00:48:46;97631.72;;;5.68;100.00
18795;BME280;29610;49.022;12.114;2023-04-26T00:51:35;97628.00;;;5.64;100.00
18795;BME280;29610;49.022;12.114;2023-04-26T00:54:24;97623.25;;;5.56;100.00
18795;BME280;29610;49.022;12.114;2023-04-26T00:57:13;97631.91;;;5.53;100.00
18795;BME280;29610;49.022;12.114;2023-04-26T01:00:04;97634.38;;;5.49;100.00
18795;BME280;29610;49.022;12.114;2023-04-26T01:02:54;97631.41;;;5.51;100.00
18795;BME280;29610;49.022;12.114;2023-04-26T01:05:45;97632.78;;;5.48;100.00
18795;BME280;29610;49.022;12.114;2023-04-26T01:08:34;97641.59;;;5.35;100.00
18795;BME280;29610;49.022;12.114;2023-04-26T01:11:23;97629.22;;;5.34;100.00
18795;BME280;29610;49.022;12.114;2023-04-26T01:14:14;97638.06;;;5.35;100.00
18795;BME280;29610;49.022;12.114;2023-04-26T01:17:03;97635.63;;;5.38;100.00
18795;BME280;29610;49.022;12.114;2023-04-26T01:19:54;97647.09;;;5.25;100.00
18795;BME280;29610;49.022;12.114;2023-04-26T01:22:45;97648.59;;;5.13;100.00
18795;BME280;29610;49.022;12.114;2023-04-26T01:25:35;97650.03;;;5.29;100.00
18795;BME280;29610;49.022;12.114;2023-04-26T01:28:25;97647.25;;;5.34;100.00
18795;BME280;29610;49.022;12.114;2023-04-26T01:31:14;97636.53;;;5.29;100.00
18795;BME280;29610;49.022;12.114;2023-04-26T01:34:03;97625.59;;;5.20;100.00
18795;BME280;29610;49.022;12.114;2023-04-26T01:36:52;97641.84;;;5.15;100.00
18795;BME280;29610;49.022;12.114;2023-04-26T01:39:43;97637.09;;;5.07;100.00
18795;BME280;29610;49.022;12.114;2023-04-26T01:42:33;97639.59;;;4.99;100.00
18795;BME280;29610;49.022;12.114;2023-04-26T01:45:22;97634.41;;;5.07;100.00
18795;BME280;29610;49.022;12.114;2023-04-26T01:48:29;97643.50;;;5.11;100.00
18795;BME280;29610;49.022;12.114;2023-04-26T01:51:21;97648.31;;;5.14;100.00
18795;BME280;29610;49.022;12.114;2023-04-26T01:54:10;97650.84;;;5.06;100.00
18795;BME280;29610;49.022;12.114;2023-04-26T01:57:00;97651.09;;;5.04;100.00
18795;BME280;29610;49.022;12.114;2023-04-26T01:59:49;97649.84;;;4.97;100.00
18795;BME280;29610;49.022;12.114;2023-04-26T02:02:38;97654.50;;;4.91;100.00
18795;BME280;29610;49.022;12.114;2023-04-26T02:05:27;97651.09;;;4.81;100.00
18795;BME280;29610;49.022;12.114;2023-04-26T02:08:16;97656.22;;;4.53;100.00
18795;BME280;29610;49.022;12.114;2023-04-26T02:11:05;97661.56;;;4.25;100.00
18795;BME280;29610;49.022;12.114;2023-04-26T02:13:57;97662.09;;;4.27;100.00
18795;BME280;29610;49.022;12.114;2023-04-26T02:16:46;97658.00;;;4.34;100.00
18795;BME280;29610;49.022;12.114;2023-04-26T02:19:35;97658.03;;;4.29;100.00
18795;BME280;29610;49.022;12.114;2023-04-26T02:22:24;97661.31;;;4.21;100.00
18795;BME280;29610;49.022;12.114;2023-04-26T02:25:13;97663.28;;;4.16;100.00
18795;BME280;29610;49.022;12.114;2023-04-26T02:28:04;97658.19;;;4.14;100.00
18795;BME280;29610;49.022;12.114;2023-04-26T02:30:54;97667.63;;;4.07;100.00
18795;BME280;29610;49.022;12.114;2023-04-26T02:33:44;97667.69;;;4.02;100.00
18795;BME280;29610;49.022;12.114;2023-04-26T02:36:33;97670.69;;;3.95;100.00
18795;BME280;29610;49.022;12.114;2023-04-26T02:39:22;97669.47;;;3.73;100.00
18795;BME280;29610;49.022;12.114;2023-04-26T02:42:11;97670.91;;;3.60;100.00
18795;BME280;29610;49.022;12.114;2023-04-26T02:45:01;97675.00;;;3.43;100.00
18795;BME280;29610;49.022;12.114;2023-04-26T02:47:51;97665.88;;;3.39;100.00
18795;BME280;29610;49.022;12.114;2023-04-26T02:50:40;97665.09;;;3.38;100.00
18795;BME280;29610;49.022;12.114;2023-04-26T02:53:31;97667.25;;;3.36;100.00
18795;BME280;29610;49.022;12.114;2023-04-26T02:56:21;97672.50;;;3.56;100.00
18795;BME280;29610;49.022;12.114;2023-04-26T02:59:13;97664.53;;;3.41;100.00
18795;BME280;29610;49.022;12.114;2023-04-26T03:02:02;97664.28;;;3.43;100.00
18795;BME280;29610;49.022;12.114;2023-04-26T03:04:54;97666.69;;;3.39;100.00
18795;BME280;29610;49.022;12.114;2023-04-26T03:07:43;97679.28;;;3.44;100.00
18795;BME280;29610;49.022;12.114;2023-04-26T03:10:33;97673.69;;;3.35;100.00
18795;BME280;29610;49.022;12.114;2023-04-26T03:13:22;97674.47;;;3.41;100.00
18795;BME280;29610;49.022;12.114;2023-04-26T03:16:13;97677.34;;;3.54;100.00
18795;BME280;29610;49.022;12.114;2023-04-26T03:19:02;97682.72;;;3.54;100.00
18795;BME280;29610;49.022;12.114;2023-04-26T03:21:53;97688.88;;;3.65;100.00
18795;BME280;29610;49.022;12.114;2023-04-26T03:24:42;97690.72;;;3.69;100.00
18795;BME280;29610;49.022;12.114;2023-04-26T03:27:34;97695.00;;;3.70;100.00
18795;BME280;29610;49.022;12.114;2023-04-26T03:30:24;97692.81;;;3.82;100.00
18795;BME280;29610;49.022;12.114;2023-04-26T03:33:13;97689.88;;;3.79;100.00
18795;BME280;29610;49.022;12.114;2023-04-26T03:36:03;97685.59;;;3.73;100.00
18795;BME280;29610;49.022;12.114;2023-04-26T03:38:53;97690.19;;;3.67;100.00
18795;BME280;29610;49.022;12.114;2023-04-26T03:41:44;97689.03;;;3.83;100.00
18795;BME280;29610;49.022;12.114;2023-04-26T03:44:34;97691.75;;;3.78;100.00
18795;BME280;29610;49.022;12.114;2023-04-26T03:47:23;97691.50;;;3.75;100.00
18795;BME280;29610;49.022;12.114;2023-04-26T03:50:12;97690.41;;;3.76;100.00
18795;BME280;29610;49.022;12.114;2023-04-26T03:53:01;97698.75;;;3.79;100.00
18795;BME280;29610;49.022;12.114;2023-04-26T03:55:52;97702.47;;;3.83;100.00
18795;BME280;29610;49.022;12.114;2023-04-26T03:58:42;97704.13;;;3.74;100.00
18795;BME280;29610;49.022;12.114;2023-04-26T04:01:31;97714.09;;;3.69;100.00
18795;BME280;29610;49.022;12.114;2023-04-26T04:04:20;97707.91;;;3.73;100.00
18795;BME280;29610;49.022;12.114;2023-04-26T04:07:10;97707.69;;;3.65;100.00
18795;BME280;29610;49.022;12.114;2023-04-26T04:09:59;97718.72;;;3.58;100.00
18795;BME280;29610;49.022;12.114;2023-04-26T04:12:49;97717.16;;;3.52;100.00
18795;BME280;29610;49.022;12.114;2023-04-26T04:15:39;97710.97;;;3.47;100.00
18795;BME280;29610;49.022;12.114;2023-04-26T04:18:28;97720.38;;;3.49;100.00
18795;BME280;29610;49.022;12.114;2023-04-26T04:21:18;97718.00;;;3.38;100.00
18795;BME280;29610;49.022;12.114;2023-04-26T04:24:07;97714.78;;;3.41;100.00
18795;BME280;29610;49.022;12.114;2023-04-26T04:26:57;97721.16;;;3.55;100.00
18795;BME280;29610;49.022;12.114;2023-04-26T04:29:49;97715.22;;;3.63;100.00
18795;BME280;29610;49.022;12.114;2023-04-26T04:32:38;97726.34;;;3.36;100.00
18795;BME280;29610;49.022;12.114;2023-04-26T04:35:30;97731.69;;;3.46;100.00
18795;BME280;29610;49.022;12.114;2023-04-26T04:38:22;97724.38;;;3.57;100.00
18795;BME280;29610;49.022;12.114;2023-04-26T04:41:12;97728.19;;;3.51;100.00
18795;BME280;29610;49.022;12.114;2023-04-26T04:44:01;97728.91;;;3.61;100.00
18795;BME280;29610;49.022;12.114;2023-04-26T04:46:52;97734.56;;;3.65;100.00
18795;BME280;29610;49.022;12.114;2023-04-26T04:49:41;97739.34;;;3.73;100.00
18795;BME280;29610;49.022;12.114;2023-04-26T04:52:31;97738.47;;;3.92;100.00
18795;BME280;29610;49.022;12.114;2023-04-26T04:55:21;97742.97;;;4.02;100.00
18795;BME280;29610;49.022;12.114;2023-04-26T04:58:10;97745.84;;;4.15;100.00
18795;BME280;29610;49.022;12.114;2023-04-26T05:01:01;97752.69;;;4.36;100.00
18795;BME280;29610;49.022;12.114;2023-04-26T05:04:01;97743.09;;;4.59;100.00
18795;BME280;29610;49.022;12.114;2023-04-26T05:06:51;97746.53;;;4.65;100.00
18795;BME280;29610;49.022;12.114;2023-04-26T05:09:42;97740.50;;;4.78;100.00
18795;BME280;29610;49.022;12.114;2023-04-26T05:12:33;97746.53;;;5.22;100.00
18795;BME280;29610;49.022;12.114;2023-04-26T05:15:23;97739.50;;;5.26;100.00
18795;BME280;29610;49.022;12.114;2023-04-26T05:18:12;97742.50;;;5.48;100.00
18795;BME280;29610;49.022;12.114;2023-04-26T05:21:03;97744.16;;;5.67;100.00
18795;BME280;29610;49.022;12.114;2023-04-26T05:23:54;97746.06;;;6.09;100.00
18795;BME280;29610;49.022;12.114;2023-04-26T05:26:43;97751.06;;;6.53;100.00
18795;BME280;29610;49.022;12.114;2023-04-26T05:29:55;97747.09;;;6.82;100.00
18795;BME280;29610;49.022;12.114;2023-04-26T05:33:06;97746.72;;;7.02;100.00
18795;BME280;29610;49.022;12.114;2023-04-26T05:36:04;97744.69;;;7.13;100.00
18795;BME280;29610;49.022;12.114;2023-04-26T05:38:53;97750.38;;;7.11;100.00
18795;BME280;29610;49.022;12.114;2023-04-26T05:41:42;97748.66;;;7.15;100.00
18795;BME280;29610;49.022;12.114;2023-04-26T05:44:32;97744.28;;;7.33;100.00
18795;BME280;29610;49.022;12.114;2023-04-26T05:47:21;97752.31;;;7.52;100.00
18795;BME280;29610;49.022;12.114;2023-04-26T05:50:12;97753.72;;;7.49;100.00
18795;BME280;29610;49.022;12.114;2023-04-26T05:53:03;97748.19;;;7.40;100.00
18795;BME280;29610;49.022;12.114;2023-04-26T05:55:51;97752.88;;;7.21;100.00
18795;BME280;29610;49.022;12.114;2023-04-26T05:58:41;97760.81;;;7.18;100.00
18795;BME280;29610;49.022;12.114;2023-04-26T06:01:31;97750.63;;;6.96;100.00
18795;BME280;29610;49.022;12.114;2023-04-26T06:04:21;97750.56;;;7.01;100.00
18795;BME280;29610;49.022;12.114;2023-04-26T06:07:22;97750.94;;;7.08;100.00
18795;BME280;29610;49.022;12.114;2023-04-26T06:10:14;97748.25;;;7.08;100.00
18795;BME280;29610;49.022;12.114;2023-04-26T06:13:05;97747.13;;;6.96;100.00
18795;BME280;29610;49.022;12.114;2023-04-26T06:15:58;97750.81;;;7.32;100.00
18795;BME280;29610;49.022;12.114;2023-04-26T06:18:47;97752.22;;;7.70;100.00
18795;BME280;29610;49.022;12.114;2023-04-26T06:21:36;97757.88;;;8.09;100.00
18795;BME280;29610;49.022;12.114;2023-04-26T06:24:25;97763.59;;;8.21;100.00
18795;BME280;29610;49.022;12.114;2023-04-26T06:27:16;97760.63;;;8.23;100.00
18795;BME280;29610;49.022;12.114;2023-04-26T06:30:09;97762.22;;;8.59;100.00
18795;BME280;29610;49.022;12.114;2023-04-26T06:33:02;97758.34;;;8.96;100.00
18795;BME280;29610;49.022;12.114;2023-04-26T06:35:52;97756.34;;;9.10;100.00
18795;BME280;29610;49.022;12.114;2023-04-26T06:38:43;97753.38;;;9.51;100.00
18795;BME280;29610;49.022;12.114;2023-04-26T06:41:33;97767.25;;;9.88;100.00
18795;BME280;29610;49.022;12.114;2023-04-26T06:44:23;97765.97;;;9.86;100.00
18795;BME280;29610;49.022;12.114;2023-04-26T06:47:19;97771.81;;;9.71;100.00
18795;BME280;29610;49.022;12.114;2023-04-26T06:50:10;97771.13;;;9.65;100.00
18795;BME280;29610;49.022;12.114;2023-04-26T06:52:59;97769.69;;;9.59;100.00
18795;BME280;29610;49.022;12.114;2023-04-26T06:55:48;97771.31;;;9.60;100.00
18795;BME280;29610;49.022;12.114;2023-04-26T06:58:36;97774.38;;;9.76;100.00
18795;BME280;29610;49.022;12.114;2023-04-26T07:01:27;97770.75;;;9.41;100.00
18795;BME280;29610;49.022;12.114;2023-04-26T07:04:20;97777.19;;;9.54;100.00
18795;BME280;29610;49.022;12.114;2023-04-26T07:07:09;97782.22;;;9.77;100.00
18795;BME280;29610;49.022;12.114;2023-04-26T07:10:00;97776.25;;;10.06;100.00
18795;BME280;29610;49.022;12.114;2023-04-26T07:12:51;97780.00;;;9.88;100.00
18795;BME280;29610;49.022;12.114;2023-04-26T07:15:40;97788.25;;;10.13;100.00
18795;BME280;29610;49.022;12.114;2023-04-26T07:18:30;97784.50;;;10.40;100.00
18795;BME280;29610;49.022;12.114;2023-04-26T07:21:19;97782.41;;;10.28;100.00
18795;BME280;29610;49.022;12.114;2023-04-26T07:24:08;97785.13;;;9.81;100.00
18795;BME280;29610;49.022;12.114;2023-04-26T07:26:57;97789.63;;;9.55;100.00
18795;BME280;29610;49.022;12.114;2023-04-26T07:29:46;97779.13;;;9.62;100.00
18795;BME280;29610;49.022;12.114;2023-04-26T07:32:37;97781.50;;;9.94;100.00
18795;BME280;29610;49.022;12.114;2023-04-26T07:35:28;97775.50;;;10.14;100.00
18795;BME280;29610;49.022;12.114;2023-04-26T07:38:18;97775.25;;;10.67;100.00
18795;BME280;29610;49.022;12.114;2023-04-26T07:41:07;97769.81;;;11.01;100.00
18795;BME280;29610;49.022;12.114;2023-04-26T07:43:57;97772.22;;;11.57;100.00
18795;BME280;29610;49.022;12.114;2023-04-26T07:46:46;97769.72;;;11.90;100.00
18795;BME280;29610;49.022;12.114;2023-04-26T07:49:34;97767.47;;;11.92;100.00
18795;BME280;29610;49.022;12.114;2023-04-26T07:52:25;97772.41;;;12.48;100.00
18795;BME280;29610;49.022;12.114;2023-04-26T07:55:14;97768.22;;;12.91;100.00
18795;BME280;29610;49.022;12.114;2023-04-26T07:58:08;97763.44;;;13.42;100.00
18795;BME280;29610;49.022;12.114;2023-04-26T08:01:01;97758.59;;;13.14;100.00
18795;BME280;29610;49.022;12.114;2023-04-26T08:03:50;97747.81;;;13.75;100.00
18795;BME280;29610;49.022;12.114;2023-04-26T08:06:40;97752.34;;;13.14;100.00
18795;BME280;29610;49.022;12.114;2023-04-26T08:09:33;97748.09;;;13.49;100.00
18795;BME280;29610;49.022;12.114;2023-04-26T08:12:22;97752.41;;;13.50;100.00
18795;BME280;29610;49.022;12.114;2023-04-26T08:15:13;97751.44;;;13.79;100.00
18795;BME280;29610;49.022;12.114;2023-04-26T08:18:03;97764.00;;;13.02;100.00
18795;BME280;29610;49.022;12.114;2023-04-26T08:20:52;97757.47;;;12.74;100.00
18795;BME280;29610;49.022;12.114;2023-04-26T08:23:41;97759.63;;;13.67;100.00
18795;BME280;29610;49.022;12.114;2023-04-26T08:26:32;97751.09;;;13.80;100.00
18795;BME280;29610;49.022;12.114;2023-04-26T08:29:22;97754.19;;;13.34;98.49
18795;BME280;29610;49.022;12.114;2023-04-26T08:32:12;97761.66;;;13.13;100.00
18795;BME280;29610;49.022;12.114;2023-04-26T08:35:01;97761.59;;;12.60;100.00
18795;BME280;29610;49.022;12.114;2023-04-26T08:37:51;97767.56;;;12.33;100.00
18795;BME280;29610;49.022;12.114;2023-04-26T08:40:42;97756.41;;;12.67;97.67
18795;BME280;29610;49.022;12.114;2023-04-26T08:43:39;97763.47;;;12.68;95.87
18795;BME280;29610;49.022;12.114;2023-04-26T08:46:31;97752.91;;;13.64;97.86
18795;BME280;29610;49.022;12.114;2023-04-26T08:49:39;97753.63;;;14.21;84.18
18795;BME280;29610;49.022;12.114;2023-04-26T08:52:30;97748.84;;;13.94;81.22
18795;BME280;29610;49.022;12.114;2023-04-26T08:55:19;97749.75;;;12.97;80.69
18795;BME280;29610;49.022;12.114;2023-04-26T08:58:11;97758.88;;;12.80;86.28
18795;BME280;29610;49.022;12.114;2023-04-26T09:01:05;97751.84;;;13.12;84.66
18795;BME280;29610;49.022;12.114;2023-04-26T09:03:54;97757.38;;;12.83;80.33
18795;BME280;29610;49.022;12.114;2023-04-26T09:06:45;97758.59;;;12.53;78.40
18795;BME280;29610;49.022;12.114;2023-04-26T09:09:41;97753.94;;;12.33;81.77
18795;BME280;29610;49.022;12.114;2023-04-26T09:12:30;97749.81;;;12.88;77.04
18795;BME280;29610;49.022;12.114;2023-04-26T09:15:21;97750.94;;;13.08;76.44
18795;BME280;29610;49.022;12.114;2023-04-26T09:18:20;97744.06;;;13.23;72.81
18795;BME280;29610;49.022;12.114;2023-04-26T09:21:11;97745.06;;;13.18;70.93
18795;BME280;29610;49.022;12.114;2023-04-26T09:24:05;97747.25;;;12.71;77.96
18795;BME280;29610;49.022;12.114;2023-04-26T09:27:00;97747.97;;;13.34;77.05
18795;BME280;29610;49.022;12.114;2023-04-26T09:30:03;97733.91;;;13.68;69.04
18795;BME280;29610;49.022;12.114;2023-04-26T09:32:55;97746.22;;;14.10;65.12
18795;BME280;29610;49.022;12.114;2023-04-26T09:35:48;97735.06;;;14.27;61.63
18795;BME280;29610;49.022;12.114;2023-04-26T09:38:41;97749.28;;;13.96;60.61
18795;BME280;29610;49.022;12.114;2023-04-26T09:41:43;97740.16;;;14.04;60.65
18795;BME280;29610;49.022;12.114;2023-04-26T09:44:32;97737.16;;;14.57;56.28
18795;BME280;29610;49.022;12.114;2023-04-26T09:47:21;97737.59;;;14.99;55.45
18795;BME280;29610;49.022;12.114;2023-04-26T09:50:10;97732.72;;;14.93;56.69
18795;BME280;29610;49.022;12.114;2023-04-26T09:53:01;97739.72;;;14.90;55.89
18795;BME280;29610;49.022;12.114;2023-04-26T09:55:53;97740.88;;;15.32;52.59
18795;BME280;29610;49.022;12.114;2023-04-26T09:58:57;97723.59;;;15.59;50.87
18795;BME280;29610;49.022;12.114;2023-04-26T10:01:50;97725.47;;;15.55;48.83
18795;BME280;29610;49.022;12.114;2023-04-26T10:04:40;97727.75;;;15.69;51.32
18795;BME280;29610;49.022;12.114;2023-04-26T10:07:29;97733.09;;;16.28;52.26
18795;BME280;29610;49.022;12.114;2023-04-26T10:10:22;97724.19;;;16.31;49.20
18795;BME280;29610;49.022;12.114;2023-04-26T10:13:14;97738.81;;;15.72;47.65
18795;BME280;29610;49.022;12.114;2023-04-26T10:16:05;97734.31;;;15.37;51.46
18795;BME280;29610;49.022;12.114;2023-04-26T10:18:55;97737.47;;;14.68;55.27
18795;BME280;29610;49.022;12.114;2023-04-26T10:21:46;97729.47;;;14.11;52.29
18795;BME280;29610;49.022;12.114;2023-04-26T10:24:37;97721.53;;;14.70;54.78
18795;BME280;29610;49.022;12.114;2023-04-26T10:27:50;97718.91;;;14.61;51.25
18795;BME280;29610;49.022;12.114;2023-04-26T10:30:57;97716.00;;;14.42;53.68
18795;BME280;29610;49.022;12.114;2023-04-26T10:34:19;97725.50;;;13.97;56.20
18795;BME280;29610;49.022;12.114;2023-04-26T10:37:10;97719.34;;;14.36;52.82
18795;BME280;29610;49.022;12.114;2023-04-26T10:40:25;97719.78;;;14.50;51.10
18795;BME280;29610;49.022;12.114;2023-04-26T10:43:29;97725.81;;;14.19;50.39
18795;BME280;29610;49.022;12.114;2023-04-26T10:46:35;97720.81;;;14.33;49.57
18795;BME280;29610;49.022;12.114;2023-04-26T10:49:28;97711.31;;;15.10;50.48
18795;BME280;29610;49.022;12.114;2023-04-26T10:52:32;97714.09;;;15.26;48.42
18795;BME280;29610;49.022;12.114;2023-04-26T10:55:37;97700.97;;;15.04;49.75
18795;BME280;29610;49.022;12.114;2023-04-26T10:58:30;97711.59;;;14.14;52.56
18795;BME280;29610;49.022;12.114;2023-04-26T11:01:19;97713.41;;;14.10;52.71
18795;BME280;29610;49.022;12.114;2023-04-26T11:04:11;97714.69;;;14.00;52.40
18795;BME280;29610;49.022;12.114;2023-04-26T11:07:02;97711.56;;;14.78;52.86
18795;BME280;29610;49.022;12.114;2023-04-26T11:09:51;97705.41;;;15.51;50.79
18795;BME280;29610;49.022;12.114;2023-04-26T11:12:41;97706.09;;;16.10;49.54
18795;BME280;29610;49.022;12.114;2023-04-26T11:15:34;97698.50;;;16.73;47.37
18795;BME280;29610;49.022;12.114;2023-04-26T11:18:23;97693.81;;;16.93;47.32
18795;BME280;29610;49.022;12.114;2023-04-26T11:21:13;97684.09;;;17.82;45.17
18795;BME280;29610;49.022;12.114;2023-04-26T11:24:06;97683.38;;;17.89;42.23
18795;BME280;29610;49.022;12.114;2023-04-26T11:26:55;97687.09;;;18.52;43.44
18795;BME280;29610;49.022;12.114;2023-04-26T11:29:44;97676.75;;;18.42;40.99
18795;BME280;29610;49.022;12.114;2023-04-26T11:32:34;97686.06;;;16.98;40.33
18795;BME280;29610;49.022;12.114;2023-04-26T11:35:25;97686.00;;;16.57;42.40
18795;BME280;29610;49.022;12.114;2023-04-26T11:38:20;97684.78;;;16.54;42.76
18795;BME280;29610;49.022;12.114;2023-04-26T11:41:10;97681.81;;;17.01;42.00
18795;BME280;29610;49.022;12.114;2023-04-26T11:44:00;97677.19;;;17.95;42.36
18795;BME280;29610;49.022;12.114;2023-04-26T11:46:50;97684.16;;;17.44;42.10
18795;BME280;29610;49.022;12.114;2023-04-26T11:49:41;97687.72;;;16.46;44.24
18795;BME280;29610;49.022;12.114;2023-04-26T11:52:31;97678.97;;;16.40;45.20
18795;BME280;29610;49.022;12.114;2023-04-26T11:55:23;97686.38;;;15.89;46.22
18795;BME280;29610;49.022;12.114;2023-04-26T11:58:15;97683.69;;;16.08;46.81
18795;BME280;29610;49.022;12.114;2023-04-26T12:01:04;97681.66;;;16.56;44.31
18795;BME280;29610;49.022;12.114;2023-04-26T12:03:56;97680.50;;;15.56;46.09
18795;BME280;29610;49.022;12.114;2023-04-26T12:06:49;97681.13;;;15.22;46.91
18795;BME280;29610;49.022;12.114;2023-04-26T12:09:40;97673.25;;;15.48;49.46
18795;BME280;29610;49.022;12.114;2023-04-26T12:12:30;97682.03;;;15.26;48.15
18795;BME280;29610;49.022;12.114;2023-04-26T12:15:22;97676.56;;;16.04;46.87
18795;BME280;29610;49.022;12.114;2023-04-26T12:18:11;97684.91;;;16.61;45.46
18795;BME280;29610;49.022;12.114;2023-04-26T12:21:03;97680.38;;;17.48;44.47
18795;BME280;29610;49.022;12.114;2023-04-26T12:23:54;97679.22;;;18.24;44.05
18795;BME280;29610;49.022;12.114;2023-04-26T12:26:44;97679.06;;;17.23;44.35
18795;BME280;29610;49.022;12.114;2023-04-26T12:29:33;97672.25;;;17.36;44.31
18795;BME280;29610;49.022;12.114;2023-04-26T12:32:24;97682.47;;;16.06;44.50
18795;BME280;29610;49.022;12.114;2023-04-26T12:35:14;97686.59;;;14.79;49.04
18795;BME280;29610;49.022;12.114;2023-04-26T12:38:04;97675.81;;;14.19;49.03
18795;BME280;29610;49.022;12.114;2023-04-26T12:40:55;97677.31;;;14.40;48.67
18795;BME280;29610;49.022;12.114;2023-04-26T12:43:45;97679.16;;;14.64;49.12
18795;BME280;29610;49.022;12.114;2023-04-26T12:46:34;97662.47;;;14.97;48.85
18795;BME280;29610;49.022;12.114;2023-04-26T12:49:24;97664.06;;;15.56;47.50
18795;BME280;29610;49.022;12.114;2023-04-26T12:52:16;97658.22;;;16.24;47.59
18795;BME280;29610;49.022;12.114;2023-04-26T12:55:07;97659.28;;;16.73;44.54
18795;BME280;29610;49.022;12.114;2023-04-26T12:57:58;97650.47;;;17.24;44.98
18795;BME280;29610;49.022;12.114;2023-04-26T13:00:47;97654.88;;;17.29;43.42
18795;BME280;29610;49.022;12.114;2023-04-26T13:03:38;97658.78;;;16.48;44.02
18795;BME280;29610;49.022;12.114;2023-04-26T13:06:27;97650.69;;;15.70;43.94
18795;BME280;29610;49.022;12.114;2023-04-26T13:09:16;97663.38;;;15.16;45.86
18795;BME280;29610;49.022;12.114;2023-04-26T13:12:06;97661.84;;;15.03;46.52
18795;BME280;29610;49.022;12.114;2023-04-26T13:14:56;97663.16;;;14.94;48.54
18795;BME280;29610;49.022;12.114;2023-04-26T13:17:46;97671.81;;;14.68;49.02
18795;BME280;29610;49.022;12.114;2023-04-26T13:20:35;97669.56;;;15.29;47.81
18795;BME280;29610;49.022;12.114;2023-04-26T13:23:24;97664.59;;;15.46;48.04
18795;BME280;29610;49.022;12.114;2023-04-26T13:26:13;97650.69;;;16.21;46.76
18795;BME280;29610;49.022;12.114;2023-04-26T13:29:04;97648.84;;;16.44;44.99
18795;BME280;29610;49.022;12.114;2023-04-26T13:31:55;97649.84;;;16.01;44.81
18795;BME280;29610;49.022;12.114;2023-04-26T13:34:44;97658.28;;;15.30;47.66
18795;BME280;29610;49.022;12.114;2023-04-26T13:37:34;97660.34;;;15.33;48.63
18795;BME280;29610;49.022;12.114;2023-04-26T13:40:23;97657.81;;;14.42;49.38
18795;BME280;29610;49.022;12.114;2023-04-26T13:43:12;97660.03;;;14.24;50.54
18795;BME280;29610;49.022;12.114;2023-04-26T13:46:01;97656.81;;;14.22;51.25
18795;BME280;29610;49.022;12.114;2023-04-26T13:48:52;97657.81;;;14.42;51.09
18795;BME280;29610;49.022;12.114;2023-04-26T13:51:41;97651.44;;;14.65;49.05
18795;BME280;29610;49.022;12.114;2023-04-26T13:54:30;97654.66;;;14.68;49.54
18795;BME280;29610;49.022;12.114;2023-04-26T13:57:19;97646.97;;;15.16;48.10
18795;BME280;29610;49.022;12.114;2023-04-26T14:00:12;97641.94;;;15.18;48.64
18795;BME280;29610;49.022;12.114;2023-04-26T14:03:02;97643.91;;;15.64;49.34
18795;BME280;29610;49.022;12.114;2023-04-26T14:06:01;97641.63;;;15.66;48.25
18795;BME280;29610;49.022;12.114;2023-04-26T14:08:50;97640.38;;;15.79;50.12
18795;BME280;29610;49.022;12.114;2023-04-26T14:11:40;97643.34;;;15.28;47.85
18795;BME280;29610;49.022;12.114;2023-04-26T14:14:29;97637.34;;;14.79;49.99
18795;BME280;29610;49.022;12.114;2023-04-26T14:17:21;97632.41;;;15.59;46.66
18795;BME280;29610;49.022;12.114;2023-04-26T14:20:11;97635.41;;;15.85;46.22
18795;BME280;29610;49.022;12.114;2023-04-26T14:23:01;97632.25;;;16.02;47.63
18795;BME280;29610;49.022;12.114;2023-04-26T14:25:51;97631.19;;;16.06;46.18
18795;BME280;29610;49.022;12.114;2023-04-26T14:28:40;97628.34;;;16.95;45.65
18795;BME280;29610;49.022;12.114;2023-04-26T14:31:30;97629.22;;;16.42;46.73
18795;BME280;29610;49.022;12.114;2023-04-26T14:34:21;97629.91;;;16.39;45.69
18795;BME280;29610;49.022;12.114;2023-04-26T14:37:10;97632.97;;;16.34;46.28
18795;BME280;29610;49.022;12.114;2023-04-26T14:40:00;97646.53;;;15.92;46.68
18795;BME280;29610;49.022;12.114;2023-04-26T14:42:50;97631.72;;;15.62;47.37
18795;BME280;29610;49.022;12.114;2023-04-26T14:45:42;97636.34;;;14.99;47.72
18795;BME280;29610;49.022;12.114;2023-04-26T14:48:31;97644.63;;;14.87;48.52
18795;BME280;29610;49.022;12.114;2023-04-26T14:51:22;97635.16;;;14.69;48.28
18795;BME280;29610;49.022;12.114;2023-04-26T14:54:13;97632.41;;;14.69;48.85